createdAt,value
2019-04-01T00:02:14.781Z,64.30
2019-04-01T00:04:42.637Z,64.20
2019-04-01T00:07:10.602Z,64.60
2019-04-01T00:09:38.676Z,64.80
2019-04-01T00:12:08.491Z,64.30
2019-04-01T00:14:36.340Z,64.20
2019-04-01T00:17:04.178Z,62.60
2019-04-01T00:19:32.262Z,62.20
2019-04-01T00:22:00.124Z,63.80
2019-04-01T00:24:27.938Z,63.40
2019-04-01T00:26:55.927Z,62.40
2019-04-01T00:29:23.765Z,63.10
2019-04-01T00:31:51.576Z,63.00
2019-04-01T00:34:19.539Z,61.50
2019-04-01T00:36:47.376Z,62.80
2019-04-01T00:39:15.381Z,62.00
2019-04-01T00:41:50.828Z,61.70
2019-04-01T00:44:18.797Z,62.30
2019-04-01T00:46:46.594Z,62.40
2019-04-01T00:49:14.405Z,62.50
2019-04-01T00:51:42.514Z,62.20
2019-04-01T00:54:10.419Z,62.20
2019-04-01T00:56:38.224Z,62.80
2019-04-01T00:59:06.234Z,62.70
2019-04-01T01:01:53.514Z,62.80
2019-04-01T01:04:21.520Z,63.50
2019-04-01T01:06:52.679Z,63.10
2019-04-01T01:09:20.807Z,63.30
2019-04-01T01:11:48.723Z,62.70
2019-04-01T01:14:16.595Z,62.60
2019-04-01T01:16:44.781Z,63.50
2019-04-01T01:19:12.872Z,63.50
2019-04-01T01:21:40.742Z,64.00
2019-04-01T01:24:08.594Z,63.70
2019-04-01T01:26:36.676Z,63.40
2019-04-01T01:29:04.746Z,63.50
2019-04-01T01:31:32.839Z,64.40
2019-04-01T01:34:00.707Z,63.80
2019-04-01T01:36:28.557Z,64.30
2019-04-01T01:38:56.733Z,63.50
2019-04-01T01:41:24.605Z,63.80
2019-04-01T01:43:52.438Z,63.80
2019-04-01T01:46:20.546Z,64.10
2019-04-01T01:48:48.509Z,64.30
2019-04-01T01:51:16.499Z,64.20
2019-04-01T01:53:45.459Z,64.10
2019-04-01T01:56:13.470Z,64.00
2019-04-01T01:58:41.318Z,64.30
2019-04-01T02:01:12.226Z,64.80
2019-04-01T02:03:40.352Z,65.20
2019-04-01T02:06:08.359Z,65.50
2019-04-01T02:08:39.269Z,64.40
2019-04-01T02:11:08.882Z,65.10
2019-04-01T02:13:36.812Z,66.00
2019-04-01T02:16:04.705Z,65.50
2019-04-01T02:18:32.707Z,65.60
2019-04-01T02:21:02.385Z,65.30
2019-04-01T02:23:30.589Z,64.00
2019-04-01T02:25:58.868Z,64.20
2019-04-01T02:28:26.920Z,64.90
2019-04-01T02:30:55.039Z,65.80
2019-04-01T02:33:23.430Z,65.00
2019-04-01T02:35:53.376Z,65.10
2019-04-01T02:38:21.859Z,65.50
2019-04-01T02:40:49.788Z,65.60
2019-04-01T02:43:17.835Z,65.40
2019-04-01T02:45:46.018Z,64.90
2019-04-01T02:48:14.044Z,65.60
2019-04-01T02:50:42.055Z,65.60
2019-04-01T02:53:10.058Z,65.60
2019-04-01T02:55:37.862Z,64.50
2019-04-01T02:58:05.804Z,65.30
2019-04-01T03:00:33.621Z,67.00
2019-04-01T03:03:01.685Z,66.30
2019-04-01T03:05:29.651Z,66.60
2019-04-01T03:07:57.450Z,65.80
2019-04-01T03:10:25.466Z,66.30
2019-04-01T03:12:53.314Z,66.90
2019-04-01T03:15:21.313Z,67.20
2019-04-01T03:17:49.283Z,66.70
2019-04-01T03:20:17.248Z,66.40
2019-04-01T03:22:45.051Z,66.60
2019-04-01T03:25:13.968Z,66.30
2019-04-01T03:27:42.099Z,65.60
2019-04-01T03:30:10.180Z,66.00
2019-04-01T03:32:44.260Z,66.40
2019-04-01T03:35:07.985Z,66.10
2019-04-01T03:37:35.796Z,65.90
2019-04-01T03:40:04.423Z,65.60
2019-04-01T03:42:32.250Z,66.00
2019-04-01T03:45:01.893Z,66.10
2019-04-01T03:47:30.079Z,66.20
2019-04-01T03:50:00.763Z,65.50
2019-04-01T03:52:28.741Z,66.40
2019-04-01T03:54:56.892Z,66.70
2019-04-01T03:57:24.846Z,65.50
2019-04-01T03:59:52.655Z,65.60
2019-04-01T04:02:20.474Z,66.30
2019-04-01T04:04:48.423Z,66.30
2019-04-01T04:07:16.432Z,66.00
2019-04-01T04:09:44.247Z,66.20
2019-04-01T04:12:12.095Z,66.40
2019-04-01T04:14:40.143Z,66.90
2019-04-01T04:17:07.969Z,66.00
2019-04-01T04:19:35.982Z,66.80
2019-04-01T04:22:03.809Z,66.40
2019-04-01T04:24:31.838Z,66.70
2019-04-01T04:26:59.751Z,65.80
2019-04-01T04:29:27.960Z,65.80
2019-04-01T04:31:55.975Z,66.70
2019-04-01T04:34:23.765Z,66.10
2019-04-01T04:36:51.756Z,66.50
2019-04-01T04:39:19.801Z,66.20
2019-04-01T04:41:48.745Z,66.40
2019-04-01T04:44:16.564Z,66.00
2019-04-01T04:46:44.515Z,65.00
2019-04-01T04:49:12.488Z,65.80
2019-04-01T04:51:42.137Z,66.00
2019-04-01T04:54:10.160Z,66.60
2019-04-01T04:56:39.869Z,66.00
2019-04-01T04:59:07.698Z,66.40
2019-04-01T05:01:35.627Z,67.00
2019-04-01T05:04:03.613Z,66.70
2019-04-01T05:06:31.430Z,67.00
2019-04-01T05:08:59.552Z,67.00
2019-04-01T05:11:27.478Z,67.30
2019-04-01T05:13:57.496Z,67.30
2019-04-01T05:16:25.843Z,67.60
2019-04-01T05:18:54.085Z,67.70
2019-04-01T05:21:22.095Z,68.10
2019-04-01T05:23:53.579Z,67.60
2019-04-01T05:26:22.604Z,67.60
2019-04-01T05:28:51.320Z,67.70
2019-04-01T05:31:22.379Z,68.20
2019-04-01T05:33:55.667Z,68.20
2019-04-01T05:36:24.167Z,67.20
2019-04-01T05:38:52.371Z,69.50
2019-04-01T05:41:20.210Z,69.40
2019-04-01T05:43:48.593Z,69.20
2019-04-01T05:46:16.562Z,69.20
2019-04-01T05:48:46.453Z,68.80
2019-04-01T05:51:14.280Z,69.00
2019-04-01T05:53:42.311Z,67.80
2019-04-01T05:56:11.574Z,69.20
2019-04-01T05:58:39.419Z,68.90
2019-04-01T06:01:14.447Z,68.70
2019-04-01T06:03:42.312Z,70.00
2019-04-01T06:06:10.136Z,69.00
2019-04-01T06:08:39.054Z,70.00
2019-04-01T06:11:07.276Z,69.90
2019-04-01T06:13:35.187Z,70.30
2019-04-01T06:16:03.594Z,68.60
2019-04-01T06:18:31.652Z,67.40
2019-04-01T06:20:59.745Z,66.00
2019-04-01T06:23:28.099Z,64.20
2019-04-01T06:25:56.107Z,62.30
2019-04-01T06:28:24.036Z,60.20
2019-04-01T06:30:51.837Z,59.40
2019-04-01T06:33:19.816Z,59.60
2019-04-01T06:35:47.795Z,59.30
2019-04-01T06:38:15.630Z,59.20
2019-04-01T06:40:43.577Z,59.50
2019-04-01T06:43:11.504Z,60.40
2019-04-01T06:45:39.355Z,62.10
2019-04-01T06:48:07.350Z,61.80
2019-04-01T06:50:35.168Z,62.00
2019-04-01T06:53:03.094Z,62.40
2019-04-01T06:55:30.921Z,62.30
2019-04-01T06:57:58.912Z,62.00
2019-04-01T07:00:26.912Z,61.20
2019-04-01T07:02:54.885Z,61.20
2019-04-01T07:05:22.728Z,61.50
2019-04-01T07:07:50.864Z,62.30
2019-04-01T07:10:18.904Z,61.80
2019-04-01T07:12:46.717Z,62.60
2019-04-01T07:15:14.760Z,62.00
2019-04-01T07:17:42.881Z,62.30
2019-04-01T07:20:11.108Z,61.40
2019-04-01T07:22:39.184Z,61.90
2019-04-01T07:25:07.097Z,61.80
2019-04-01T07:27:35.466Z,61.20
2019-04-01T07:30:06.560Z,60.70
2019-04-01T07:32:34.572Z,60.70
2019-04-01T07:35:03.073Z,60.20
2019-04-01T07:37:31.352Z,59.20
2019-04-01T07:40:02.238Z,57.50
2019-04-01T07:42:30.253Z,58.80
2019-04-01T07:44:58.434Z,58.60
2019-04-01T07:47:26.246Z,57.50
2019-04-01T07:49:54.365Z,58.00
2019-04-01T07:52:22.208Z,57.70
2019-04-01T07:54:50.205Z,57.80
2019-04-01T07:57:18.145Z,56.90
2019-04-01T07:59:46.033Z,56.80
2019-04-01T08:02:14.025Z,56.30
2019-04-01T08:04:41.895Z,54.70
2019-04-01T08:07:13.080Z,53.40
2019-04-01T08:09:39.926Z,52.80
2019-04-01T08:12:07.720Z,51.30
2019-04-01T08:14:35.560Z,47.40
2019-04-01T08:17:03.618Z,45.70
2019-04-01T08:19:31.467Z,45.40
2019-04-01T08:21:59.668Z,42.40
2019-04-01T08:24:27.735Z,41.60
2019-04-01T08:26:55.577Z,40.10
2019-04-01T08:29:29.879Z,39.50
2019-04-01T08:31:53.312Z,39.00
2019-04-01T08:34:21.377Z,40.10
2019-04-01T08:36:49.240Z,39.10
2019-04-01T08:39:17.126Z,37.70
2019-04-01T08:41:45.197Z,38.30
2019-04-01T08:44:13.042Z,37.50
2019-04-01T08:46:41.051Z,37.30
2019-04-01T08:49:08.929Z,37.10
2019-04-01T08:51:37.030Z,37.10
2019-04-01T08:54:05.264Z,37.60
2019-04-01T08:56:37.901Z,37.20
2019-04-01T08:59:03.459Z,37.00
2019-04-01T09:01:35.335Z,37.80
2019-04-01T09:04:04.069Z,35.50
2019-04-01T09:06:32.159Z,37.50
2019-04-01T09:09:00.911Z,38.10
2019-04-01T09:11:28.736Z,37.60
2019-04-01T09:13:57.369Z,37.50
2019-04-01T09:16:25.875Z,37.30
2019-04-01T09:18:53.804Z,38.10
2019-04-01T09:21:21.777Z,37.50
2019-04-01T09:23:52.112Z,34.60
2019-04-01T09:26:19.579Z,37.20
2019-04-01T09:28:47.431Z,37.00
2019-04-01T09:31:15.254Z,36.80
2019-04-01T09:33:43.307Z,37.40
2019-04-01T09:36:12.941Z,37.70
2019-04-01T09:38:40.975Z,35.50
2019-04-01T09:41:08.959Z,35.70
2019-04-01T09:43:36.769Z,37.00
2019-04-01T09:46:04.787Z,35.90
2019-04-01T09:48:32.610Z,34.30
2019-04-01T09:51:00.628Z,34.90
2019-04-01T09:53:28.476Z,36.40
2019-04-01T09:55:56.444Z,37.10
2019-04-01T09:58:24.273Z,35.30
2019-04-01T10:00:53.393Z,34.80
2019-04-01T10:03:21.619Z,31.40
2019-04-01T10:05:49.451Z,34.20
2019-04-01T10:08:17.442Z,35.10
2019-04-01T10:10:45.266Z,34.30
2019-04-01T10:13:13.336Z,33.70
2019-04-01T10:15:41.185Z,34.10
2019-04-01T10:18:09.465Z,34.60
2019-04-01T10:20:37.297Z,34.40
2019-04-01T10:23:05.320Z,34.40
2019-04-01T10:25:33.256Z,32.50
2019-04-01T10:28:01.274Z,33.90
2019-04-01T10:30:29.236Z,32.70
2019-04-01T10:33:01.887Z,32.10
2019-04-01T10:35:28.367Z,32.00
2019-04-01T10:37:59.751Z,31.30
2019-04-01T10:40:27.649Z,32.30
2019-04-01T10:42:56.986Z,33.30
2019-04-01T10:45:24.810Z,30.70
2019-04-01T10:47:54.516Z,33.00
2019-04-01T10:50:22.631Z,31.80
2019-04-01T10:52:50.643Z,31.00
2019-04-01T10:55:18.650Z,29.30
2019-04-01T10:57:46.760Z,30.60
2019-04-01T11:00:16.238Z,30.20
2019-04-01T11:02:44.502Z,28.90
2019-04-01T11:05:14.087Z,29.70
2019-04-01T11:07:42.000Z,29.80
2019-04-01T11:10:11.715Z,29.20
2019-04-01T11:12:39.980Z,28.60
2019-04-01T11:15:08.223Z,30.30
2019-04-01T11:17:36.196Z,28.10
2019-04-01T11:20:06.102Z,28.00
2019-04-01T11:22:34.058Z,30.10
2019-04-01T11:25:02.263Z,27.70
2019-04-01T11:27:30.342Z,26.70
2019-04-01T11:29:58.335Z,26.60
2019-04-01T11:32:26.554Z,26.30
2019-04-01T11:34:56.250Z,27.10
2019-04-01T11:37:24.219Z,28.60
2019-04-01T11:39:52.280Z,27.90
2019-04-01T11:42:20.111Z,27.20
2019-04-01T11:44:48.265Z,26.80
2019-04-01T11:47:17.416Z,26.70
2019-04-01T11:49:45.398Z,26.50
2019-04-01T11:52:15.517Z,26.70
2019-04-01T11:54:43.110Z,25.70
2019-04-01T11:57:12.176Z,25.80
2019-04-01T11:59:41.240Z,25.90
2019-04-01T12:02:09.248Z,26.20
2019-04-01T12:04:37.532Z,26.60
2019-04-01T12:07:05.616Z,25.50
2019-04-01T12:09:33.473Z,24.80
2019-04-01T12:12:01.364Z,25.30
2019-04-01T12:14:29.420Z,24.90
2019-04-01T12:16:57.597Z,25.30
2019-04-01T12:19:25.397Z,24.90
2019-04-01T12:21:53.325Z,25.40
2019-04-01T12:24:21.160Z,24.00
2019-04-01T12:26:50.825Z,24.80
2019-04-01T12:29:18.898Z,26.60
2019-04-01T12:31:46.738Z,23.60
2019-04-01T12:34:14.949Z,23.00
2019-04-01T12:36:42.774Z,23.30
2019-04-01T12:39:10.801Z,23.60
2019-04-01T12:41:38.615Z,23.20
2019-04-01T12:44:06.546Z,22.40
2019-04-01T12:46:34.724Z,21.60
2019-04-01T12:49:03.918Z,21.60
2019-04-01T12:51:31.888Z,21.60
2019-04-01T12:53:59.736Z,22.10
2019-04-01T12:56:27.646Z,21.90
2019-04-01T12:58:55.668Z,21.30
2019-04-01T13:01:23.512Z,21.00
2019-04-01T13:03:51.381Z,20.70
2019-04-01T13:06:19.528Z,20.60
2019-04-01T13:08:47.498Z,19.80
2019-04-01T13:11:15.483Z,20.20
2019-04-01T13:13:44.629Z,20.20
2019-04-01T13:16:12.891Z,20.80
2019-04-01T13:18:40.835Z,20.40
2019-04-01T13:21:08.673Z,19.50
2019-04-01T13:23:36.837Z,21.00
2019-04-01T13:26:06.401Z,19.90
2019-04-01T13:28:34.397Z,19.90
2019-04-01T13:31:02.214Z,18.50
2019-04-01T13:33:30.056Z,20.20
2019-04-01T13:35:58.084Z,20.20
2019-04-01T13:38:25.925Z,19.50
2019-04-01T13:40:53.759Z,19.60
2019-04-01T13:43:21.704Z,19.20
2019-04-01T13:45:50.294Z,19.30
2019-04-01T13:48:18.768Z,18.90
2019-04-01T13:50:47.498Z,18.80
2019-04-01T13:53:15.347Z,18.40
2019-04-01T13:55:43.370Z,19.20
2019-04-01T13:58:11.188Z,18.40
2019-04-01T14:00:39.013Z,17.30
2019-04-01T14:03:07.209Z,15.50
2019-04-01T14:05:35.180Z,17.20
2019-04-01T14:08:05.723Z,17.70
2019-04-01T14:10:32.892Z,17.40
2019-04-01T14:13:01.918Z,17.40
2019-04-01T14:15:30.164Z,16.50
2019-04-01T14:18:00.339Z,17.30
2019-04-01T14:20:28.355Z,16.50
2019-04-01T14:22:56.343Z,17.90
2019-04-01T14:25:24.183Z,17.40
2019-04-01T14:27:52.003Z,16.50
2019-04-01T14:30:22.042Z,16.50
2019-04-01T14:32:50.028Z,15.60
2019-04-01T14:35:17.837Z,16.90
2019-04-01T14:37:45.840Z,15.50
2019-04-01T14:40:13.945Z,16.50
2019-04-01T14:42:42.927Z,15.80
2019-04-01T14:45:10.871Z,16.20
2019-04-01T14:47:55.643Z,16.40
2019-04-01T14:50:08.680Z,16.50
2019-04-01T14:52:36.527Z,16.50
2019-04-01T14:55:04.935Z,17.20
2019-04-01T14:57:33.021Z,16.20
2019-04-01T15:00:00.857Z,15.20
2019-04-01T15:02:28.894Z,15.40
2019-04-01T15:04:56.846Z,16.10
2019-04-01T15:07:24.740Z,15.50
2019-04-01T15:09:52.643Z,16.50
2019-04-01T15:12:20.628Z,15.10
2019-04-01T15:14:48.549Z,16.00
2019-04-01T15:17:17.344Z,15.80
2019-04-01T15:19:48.371Z,15.50
2019-04-01T15:22:15.297Z,16.20
2019-04-01T15:24:43.124Z,16.00
2019-04-01T15:27:12.360Z,15.50
2019-04-01T15:29:40.232Z,15.70
2019-04-01T15:32:08.227Z,16.60
2019-04-01T15:34:36.281Z,16.70
2019-04-01T15:37:04.257Z,15.60
2019-04-01T15:39:32.286Z,16.70
2019-04-01T15:42:00.115Z,16.10
2019-04-01T15:44:29.387Z,16.70
2019-04-01T15:46:57.671Z,16.00
2019-04-01T15:49:25.510Z,15.90
2019-04-01T15:51:53.539Z,15.70
2019-04-01T15:54:21.355Z,16.30
2019-04-01T15:56:49.379Z,16.20
2019-04-01T15:59:18.357Z,16.30
2019-04-01T16:01:46.249Z,16.80
2019-04-01T16:04:16.466Z,16.70
2019-04-01T16:06:43.945Z,16.60
2019-04-01T16:09:11.772Z,16.90
2019-04-01T16:11:39.906Z,16.70
2019-04-01T16:14:08.985Z,16.90
2019-04-01T16:16:36.963Z,17.60
2019-04-01T16:19:04.938Z,18.20
2019-04-01T16:21:32.921Z,17.70
2019-04-01T16:24:03.600Z,17.70
2019-04-01T16:26:31.615Z,17.90
2019-04-01T16:28:59.436Z,18.10
2019-04-01T16:31:27.476Z,18.20
2019-04-01T16:33:55.646Z,18.30
2019-04-01T16:36:23.559Z,18.50
2019-04-01T16:38:51.542Z,18.90
2019-04-01T16:41:19.365Z,19.50
2019-04-01T16:43:47.181Z,20.00
2019-04-01T16:46:15.206Z,20.50
2019-04-01T16:48:46.475Z,20.90
2019-04-01T16:51:14.185Z,21.80
2019-04-01T16:53:44.414Z,21.40
2019-04-01T16:56:12.109Z,20.70
2019-04-01T16:58:39.956Z,21.00
2019-04-01T17:01:14.602Z,20.90
2019-04-01T17:03:42.416Z,21.30
2019-04-01T17:06:10.256Z,21.50
2019-04-01T17:08:39.180Z,21.90
2019-04-01T17:11:07.751Z,22.30
2019-04-01T17:13:35.639Z,22.40
2019-04-01T17:16:04.113Z,23.20
2019-04-01T17:18:32.260Z,23.30
2019-04-01T17:21:00.088Z,24.00
2019-04-01T17:23:28.494Z,24.60
2019-04-01T17:25:56.776Z,24.80
2019-04-01T17:28:25.846Z,25.20
2019-04-01T17:30:53.828Z,25.80
2019-04-01T17:33:22.877Z,25.90
2019-04-01T17:35:50.840Z,26.00
2019-04-01T17:38:18.686Z,26.50
2019-04-01T17:40:46.700Z,26.90
2019-04-01T17:43:16.319Z,27.40
2019-04-01T17:45:44.586Z,27.30
2019-04-01T17:48:12.413Z,27.70
2019-04-01T17:50:40.437Z,28.20
2019-04-01T17:53:09.707Z,29.30
2019-04-01T17:55:37.877Z,29.70
2019-04-01T17:58:06.506Z,29.70
2019-04-01T18:00:36.940Z,30.30
2019-04-01T18:03:05.113Z,30.70
2019-04-01T18:05:33.525Z,31.30
2019-04-01T18:08:01.590Z,31.70
2019-04-01T18:10:29.753Z,33.40
2019-04-01T18:12:57.630Z,33.00
2019-04-01T18:15:25.562Z,34.10
2019-04-01T18:17:53.568Z,34.20
2019-04-01T18:20:21.661Z,34.60
2019-04-01T18:22:49.470Z,35.30
2019-04-01T18:25:17.309Z,35.90
2019-04-01T18:27:45.266Z,36.60
2019-04-01T18:30:20.189Z,36.50
2019-04-01T18:32:52.106Z,37.30
2019-04-01T18:35:19.276Z,37.60
2019-04-01T18:37:47.313Z,38.30
2019-04-01T18:40:15.417Z,39.10
2019-04-01T18:42:43.465Z,39.40
2019-04-01T18:45:11.720Z,40.20
2019-04-01T18:47:39.707Z,40.50
2019-04-01T18:50:08.639Z,40.80
2019-04-01T18:52:38.110Z,41.20
2019-04-01T18:55:07.973Z,41.70
2019-04-01T18:57:36.087Z,40.90
2019-04-01T19:00:06.167Z,43.30
2019-04-01T19:02:37.743Z,43.30
2019-04-01T19:05:06.201Z,43.70
2019-04-01T19:07:35.321Z,44.00
2019-04-01T19:10:06.537Z,44.40
2019-04-01T19:12:36.486Z,44.30
2019-04-01T19:15:06.479Z,44.60
2019-04-01T19:17:34.479Z,45.20
2019-04-01T19:20:02.505Z,45.30
2019-04-01T19:22:30.505Z,45.60
2019-04-01T19:24:58.381Z,45.90
2019-04-01T19:27:26.411Z,46.10
2019-04-01T19:29:56.178Z,46.80
2019-04-01T19:32:27.318Z,46.70
2019-04-01T19:34:54.999Z,47.00
2019-04-01T19:37:22.947Z,47.60
2019-04-01T19:39:52.183Z,47.30
2019-04-01T19:42:20.430Z,47.30
2019-04-01T19:44:48.802Z,47.60
2019-04-01T19:47:16.978Z,47.10
2019-04-01T19:49:44.820Z,47.10
2019-04-01T19:52:12.806Z,47.00
2019-04-01T19:54:40.740Z,47.20
2019-04-01T19:57:10.461Z,47.60
2019-04-01T19:59:38.873Z,48.10
2019-04-01T20:02:09.434Z,48.00
2019-04-01T20:04:39.218Z,48.40
2019-04-01T20:07:07.292Z,48.30
2019-04-01T20:09:35.139Z,48.00
2019-04-01T20:12:03.257Z,47.90
2019-04-01T20:14:31.109Z,48.30
2019-04-01T20:17:01.907Z,48.80
2019-04-01T20:19:28.957Z,48.90
2019-04-01T20:21:57.417Z,49.30
2019-04-01T20:24:25.581Z,50.00
2019-04-01T20:26:53.547Z,50.10
2019-04-01T20:29:21.384Z,50.10
2019-04-01T20:31:49.398Z,50.10
2019-04-01T20:34:19.835Z,50.60
2019-04-01T20:36:49.184Z,50.80
2019-04-01T20:39:18.240Z,50.90
2019-04-01T20:41:46.421Z,51.10
2019-04-01T20:44:15.612Z,51.90
2019-04-01T20:46:43.499Z,52.10
2019-04-01T20:49:11.570Z,52.40
2019-04-01T20:51:40.416Z,52.80
2019-04-01T20:54:08.245Z,53.10
2019-04-01T20:56:36.287Z,53.90
2019-04-01T20:59:04.155Z,54.20
2019-04-01T21:01:34.265Z,54.40
2019-04-01T21:04:03.278Z,53.80
2019-04-01T21:06:31.130Z,54.70
2019-04-01T21:08:59.119Z,55.20
2019-04-01T21:11:27.102Z,54.80
2019-04-01T21:13:54.939Z,55.20
2019-04-01T21:16:22.937Z,55.40
2019-04-01T21:18:50.914Z,55.10
2019-04-01T21:21:18.898Z,54.30
2019-04-01T21:23:46.733Z,54.80
2019-04-01T21:26:14.573Z,54.30
2019-04-01T21:28:42.825Z,54.20
2019-04-01T21:31:10.711Z,54.40
2019-04-01T21:33:38.708Z,54.40
2019-04-01T21:36:06.972Z,54.00
2019-04-01T21:38:35.189Z,54.60
2019-04-01T21:41:03.212Z,54.50
2019-04-01T21:43:31.162Z,54.80
2019-04-01T21:45:59.010Z,55.70
2019-04-01T21:48:28.175Z,55.90
2019-04-01T21:50:56.110Z,56.30
2019-04-01T21:53:23.927Z,56.30
2019-04-01T21:55:51.744Z,55.70
2019-04-01T21:58:20.072Z,55.40
2019-04-01T22:00:53.335Z,55.30
2019-04-01T22:03:21.161Z,54.70
2019-04-01T22:05:50.778Z,55.10
2019-04-01T22:08:18.891Z,55.20
2019-04-01T22:10:47.307Z,55.30
2019-04-01T22:13:15.341Z,54.00
2019-04-01T22:15:43.371Z,55.30
2019-04-01T22:18:11.394Z,55.80
2019-04-01T22:20:42.471Z,55.80
2019-04-01T22:23:09.080Z,56.50
2019-04-01T22:25:37.094Z,56.80
2019-04-01T22:28:05.842Z,55.90
2019-04-01T22:30:33.817Z,56.50
2019-04-01T22:33:01.799Z,56.30
2019-04-01T22:35:38.441Z,56.10
2019-04-01T22:37:59.481Z,56.10
2019-04-01T22:40:27.350Z,56.20
2019-04-01T22:42:56.210Z,56.20
2019-04-01T22:45:24.372Z,55.60
2019-04-01T22:47:52.499Z,56.90
2019-04-01T22:50:20.325Z,56.30
2019-04-01T22:52:48.344Z,57.70
2019-04-01T22:55:16.161Z,57.60
2019-04-01T22:57:44.086Z,57.70
2019-04-01T23:00:12.316Z,58.10
2019-04-01T23:02:40.134Z,58.80
2019-04-01T23:05:08.898Z,59.10
2019-04-01T23:07:36.845Z,59.00
2019-04-01T23:10:06.671Z,58.90
2019-04-01T23:12:34.708Z,59.20
2019-04-01T23:15:03.183Z,59.00
2019-04-01T23:17:31.002Z,59.10
2019-04-01T23:19:58.828Z,59.40
2019-04-01T23:22:27.001Z,59.20
2019-04-01T23:24:54.860Z,57.60
2019-04-01T23:27:24.700Z,59.00
2019-04-01T23:29:52.515Z,59.30
2019-04-01T23:32:21.017Z,59.80
2019-04-01T23:34:49.019Z,59.60
2019-04-01T23:37:16.860Z,59.70
2019-04-01T23:39:44.681Z,58.80
2019-04-01T23:42:15.094Z,59.60
2019-04-01T23:44:43.137Z,60.00
2019-04-01T23:47:11.134Z,59.10
2019-04-01T23:49:40.273Z,58.10
2019-04-01T23:52:08.294Z,59.00
2019-04-01T23:54:36.282Z,59.40
2019-04-01T23:57:04.207Z,59.70
2019-04-01T23:59:32.232Z,59.70
